sensor_id;sensor_type;location;lat;lon;timestamp;temperature;humidity
14798;DHT22;7490;63.708;20.368;2022-12-18T00:01:36;-4.00;84.90
14798;DHT22;7490;63.708;20.368;2022-12-18T00:04:07;-4.00;84.90
14798;DHT22;7490;63.708;20.368;2022-12-18T00:06:35;-3.90;85.00
14798;DHT22;7490;63.708;20.368;2022-12-18T00:09:03;-3.90;85.10
14798;DHT22;7490;63.708;20.368;2022-12-18T00:11:29;-3.90;85.10
14798;DHT22;7490;63.708;20.368;2022-12-18T00:13:57;-3.80;85.30
14798;DHT22;7490;63.708;20.368;2022-12-18T00:16:24;-3.80;86.00
14798;DHT22;7490;63.708;20.368;2022-12-18T00:18:52;-3.80;85.20
14798;DHT22;7490;63.708;20.368;2022-12-18T00:21:19;-3.70;85.30
14798;DHT22;7490;63.708;20.368;2022-12-18T00:23:46;-3.70;85.40
14798;DHT22;7490;63.708;20.368;2022-12-18T00:26:18;-3.60;85.40
14798;DHT22;7490;63.708;20.368;2022-12-18T00:28:45;-3.40;85.50
14798;DHT22;7490;63.708;20.368;2022-12-18T00:31:14;-3.60;85.40
14798;DHT22;7490;63.708;20.368;2022-12-18T00:33:39;-3.60;85.50
14798;DHT22;7490;63.708;20.368;2022-12-18T00:36:09;-3.50;85.50
14798;DHT22;7490;63.708;20.368;2022-12-18T00:38:35;-3.60;85.50
14798;DHT22;7490;63.708;20.368;2022-12-18T00:41:00;-3.50;85.70
14798;DHT22;7490;63.708;20.368;2022-12-18T00:43:26;-3.50;86.00
14798;DHT22;7490;63.708;20.368;2022-12-18T00:45:52;-3.50;86.20
14798;DHT22;7490;63.708;20.368;2022-12-18T00:48:18;-3.40;86.50
14798;DHT22;7490;63.708;20.368;2022-12-18T00:50:44;-3.30;86.60
14798;DHT22;7490;63.708;20.368;2022-12-18T00:53:09;-3.30;86.60
14798;DHT22;7490;63.708;20.368;2022-12-18T00:55:37;-3.20;86.50
14798;DHT22;7490;63.708;20.368;2022-12-18T00:58:04;-3.10;86.50
14798;DHT22;7490;63.708;20.368;2022-12-18T01:00:29;-3.10;86.30
14798;DHT22;7490;63.708;20.368;2022-12-18T01:02:55;-3.10;86.40
14798;DHT22;7490;63.708;20.368;2022-12-18T01:05:21;-3.00;86.50
14798;DHT22;7490;63.708;20.368;2022-12-18T01:07:46;-3.00;86.50
14798;DHT22;7490;63.708;20.368;2022-12-18T01:10:12;-2.90;86.40
14798;DHT22;7490;63.708;20.368;2022-12-18T01:12:38;-2.90;86.40
14798;DHT22;7490;63.708;20.368;2022-12-18T01:15:05;-2.90;86.50
14798;DHT22;7490;63.708;20.368;2022-12-18T01:17:32;-2.90;86.80
14798;DHT22;7490;63.708;20.368;2022-12-18T01:19:57;-2.90;86.90
14798;DHT22;7490;63.708;20.368;2022-12-18T01:22:23;-2.80;87.00
14798;DHT22;7490;63.708;20.368;2022-12-18T01:24:49;-2.80;87.00
14798;DHT22;7490;63.708;20.368;2022-12-18T01:27:14;-2.80;87.80
14798;DHT22;7490;63.708;20.368;2022-12-18T01:29:40;-2.70;87.10
14798;DHT22;7490;63.708;20.368;2022-12-18T01:32:06;-2.60;87.10
14798;DHT22;7490;63.708;20.368;2022-12-18T01:34:31;-2.50;87.10
14798;DHT22;7490;63.708;20.368;2022-12-18T01:36:57;-2.50;87.10
14798;DHT22;7490;63.708;20.368;2022-12-18T01:39:23;-2.40;87.10
14798;DHT22;7490;63.708;20.368;2022-12-18T01:41:48;-2.40;87.10
14798;DHT22;7490;63.708;20.368;2022-12-18T01:44:56;-2.40;87.10
14798;DHT22;7490;63.708;20.368;2022-12-18T01:47:33;-2.30;87.10
14798;DHT22;7490;63.708;20.368;2022-12-18T01:50:04;-2.30;87.10
14798;DHT22;7490;63.708;20.368;2022-12-18T01:52:32;-2.30;87.10
14798;DHT22;7490;63.708;20.368;2022-12-18T01:54:59;-2.20;87.10
14798;DHT22;7490;63.708;20.368;2022-12-18T01:57:26;-2.00;87.10
14798;DHT22;7490;63.708;20.368;2022-12-18T01:59:53;-2.20;86.90
14798;DHT22;7490;63.708;20.368;2022-12-18T02:02:21;-2.20;86.90
14798;DHT22;7490;63.708;20.368;2022-12-18T02:04:47;-2.20;86.90
14798;DHT22;7490;63.708;20.368;2022-12-18T02:10:00;-2.20;87.00
14798;DHT22;7490;63.708;20.368;2022-12-18T02:15:13;-2.10;87.30
14798;DHT22;7490;63.708;20.368;2022-12-18T02:17:52;-2.10;87.20
14798;DHT22;7490;63.708;20.368;2022-12-18T02:28:36;-2.10;87.20
14798;DHT22;7490;63.708;20.368;2022-12-18T02:31:06;-2.10;87.40
14798;DHT22;7490;63.708;20.368;2022-12-18T02:33:34;-2.10;87.60
14798;DHT22;7490;63.708;20.368;2022-12-18T02:36:01;-2.00;87.60
14798;DHT22;7490;63.708;20.368;2022-12-18T02:38:29;-2.00;87.70
14798;DHT22;7490;63.708;20.368;2022-12-18T02:40:56;-2.00;87.70
14798;DHT22;7490;63.708;20.368;2022-12-18T02:43:23;-1.90;87.80
14798;DHT22;7490;63.708;20.368;2022-12-18T02:45:59;-1.90;87.80
14798;DHT22;7490;63.708;20.368;2022-12-18T02:48:30;-1.90;87.70
14798;DHT22;7490;63.708;20.368;2022-12-18T02:51:11;-1.80;87.80
14798;DHT22;7490;63.708;20.368;2022-12-18T02:53:47;-1.80;87.80
14798;DHT22;7490;63.708;20.368;2022-12-18T02:56:26;-1.80;87.90
14798;DHT22;7490;63.708;20.368;2022-12-18T02:59:06;-1.70;88.10
14798;DHT22;7490;63.708;20.368;2022-12-18T03:01:57;-1.70;88.10
14798;DHT22;7490;63.708;20.368;2022-12-18T03:04:39;-1.60;88.00
14798;DHT22;7490;63.708;20.368;2022-12-18T03:07:10;-1.60;88.00
14798;DHT22;7490;63.708;20.368;2022-12-18T03:09:41;-1.60;88.10
14798;DHT22;7490;63.708;20.368;2022-12-18T03:12:43;-1.60;88.20
14798;DHT22;7490;63.708;20.368;2022-12-18T03:15:17;-1.50;88.40
14798;DHT22;7490;63.708;20.368;2022-12-18T03:17:49;-1.50;88.30
14798;DHT22;7490;63.708;20.368;2022-12-18T03:20:21;-1.40;88.30
14798;DHT22;7490;63.708;20.368;2022-12-18T03:22:51;-1.40;88.20
14798;DHT22;7490;63.708;20.368;2022-12-18T03:25:19;-1.40;88.30
14798;DHT22;7490;63.708;20.368;2022-12-18T03:27:48;-1.30;88.50
14798;DHT22;7490;63.708;20.368;2022-12-18T03:30:15;-1.30;88.30
14798;DHT22;7490;63.708;20.368;2022-12-18T03:32:49;-1.30;88.20
14798;DHT22;7490;63.708;20.368;2022-12-18T03:35:22;-1.30;88.20
14798;DHT22;7490;63.708;20.368;2022-12-18T03:37:49;-1.30;88.30
14798;DHT22;7490;63.708;20.368;2022-12-18T03:40:15;-1.30;88.30
14798;DHT22;7490;63.708;20.368;2022-12-18T03:42:52;-1.20;88.30
14798;DHT22;7490;63.708;20.368;2022-12-18T03:45:27;-1.20;88.20
14798;DHT22;7490;63.708;20.368;2022-12-18T03:48:16;-1.30;88.10
14798;DHT22;7490;63.708;20.368;2022-12-18T03:51:00;-1.30;88.20
14798;DHT22;7490;63.708;20.368;2022-12-18T03:56:12;-1.30;88.30
14798;DHT22;7490;63.708;20.368;2022-12-18T03:58:40;-1.30;88.30
14798;DHT22;7490;63.708;20.368;2022-12-18T04:01:12;-1.30;88.40
14798;DHT22;7490;63.708;20.368;2022-12-18T04:03:41;-1.30;88.30
14798;DHT22;7490;63.708;20.368;2022-12-18T04:06:07;-1.30;88.40
14798;DHT22;7490;63.708;20.368;2022-12-18T04:08:34;-1.30;88.50
14798;DHT22;7490;63.708;20.368;2022-12-18T04:11:01;-1.30;88.70
14798;DHT22;7490;63.708;20.368;2022-12-18T04:13:34;-1.40;88.90
14798;DHT22;7490;63.708;20.368;2022-12-18T04:16:00;-1.40;89.10
14798;DHT22;7490;63.708;20.368;2022-12-18T04:18:26;-1.40;89.40
14798;DHT22;7490;63.708;20.368;2022-12-18T04:20:52;-1.40;89.70
14798;DHT22;7490;63.708;20.368;2022-12-18T04:23:18;-1.40;90.00
14798;DHT22;7490;63.708;20.368;2022-12-18T04:25:44;-1.30;90.20
14798;DHT22;7490;63.708;20.368;2022-12-18T04:28:10;-1.20;90.30
14798;DHT22;7490;63.708;20.368;2022-12-18T04:30:36;-1.20;90.40
14798;DHT22;7490;63.708;20.368;2022-12-18T04:33:01;-1.10;90.50
14798;DHT22;7490;63.708;20.368;2022-12-18T04:35:27;-1.00;90.60
14798;DHT22;7490;63.708;20.368;2022-12-18T04:37:52;-0.90;90.60
14798;DHT22;7490;63.708;20.368;2022-12-18T04:40:18;-0.90;90.70
14798;DHT22;7490;63.708;20.368;2022-12-18T04:42:44;-0.80;90.70
14798;DHT22;7490;63.708;20.368;2022-12-18T04:45:10;-0.70;90.70
14798;DHT22;7490;63.708;20.368;2022-12-18T04:47:35;-0.60;90.70
14798;DHT22;7490;63.708;20.368;2022-12-18T04:50:01;-0.60;90.70
14798;DHT22;7490;63.708;20.368;2022-12-18T04:52:27;-0.50;90.80
14798;DHT22;7490;63.708;20.368;2022-12-18T04:54:52;-0.50;90.80
14798;DHT22;7490;63.708;20.368;2022-12-18T04:57:18;-0.40;90.80
14798;DHT22;7490;63.708;20.368;2022-12-18T04:59:44;-0.40;90.80
14798;DHT22;7490;63.708;20.368;2022-12-18T05:02:10;-0.30;91.00
14798;DHT22;7490;63.708;20.368;2022-12-18T05:04:36;-0.30;91.00
14798;DHT22;7490;63.708;20.368;2022-12-18T05:07:01;-0.20;91.00
14798;DHT22;7490;63.708;20.368;2022-12-18T05:09:27;0.00;91.10
14798;DHT22;7490;63.708;20.368;2022-12-18T05:11:53;-0.10;91.10
14798;DHT22;7490;63.708;20.368;2022-12-18T05:14:19;0.10;91.20
14798;DHT22;7490;63.708;20.368;2022-12-18T05:16:44;0.00;91.10
14798;DHT22;7490;63.708;20.368;2022-12-18T05:19:10;0.10;91.20
14798;DHT22;7490;63.708;20.368;2022-12-18T05:21:36;0.20;91.10
14798;DHT22;7490;63.708;20.368;2022-12-18T05:24:01;0.20;91.20
14798;DHT22;7490;63.708;20.368;2022-12-18T05:26:27;0.20;91.10
14798;DHT22;7490;63.708;20.368;2022-12-18T05:28:52;0.30;91.10
14798;DHT22;7490;63.708;20.368;2022-12-18T05:31:18;0.30;91.20
14798;DHT22;7490;63.708;20.368;2022-12-18T05:33:44;0.50;91.30
14798;DHT22;7490;63.708;20.368;2022-12-18T05:36:10;0.40;91.20
14798;DHT22;7490;63.708;20.368;2022-12-18T05:38:38;0.40;91.30
14798;DHT22;7490;63.708;20.368;2022-12-18T05:41:05;0.50;91.30
14798;DHT22;7490;63.708;20.368;2022-12-18T05:43:31;0.50;91.30
14798;DHT22;7490;63.708;20.368;2022-12-18T05:46:03;0.60;91.40
14798;DHT22;7490;63.708;20.368;2022-12-18T05:48:29;0.60;91.40
14798;DHT22;7490;63.708;20.368;2022-12-18T05:50:55;0.60;91.40
14798;DHT22;7490;63.708;20.368;2022-12-18T05:53:20;0.70;91.40
14798;DHT22;7490;63.708;20.368;2022-12-18T05:55:47;0.70;91.40
14798;DHT22;7490;63.708;20.368;2022-12-18T05:58:13;0.70;91.40
14798;DHT22;7490;63.708;20.368;2022-12-18T06:00:41;0.80;91.40
14798;DHT22;7490;63.708;20.368;2022-12-18T06:03:11;0.80;91.30
14798;DHT22;7490;63.708;20.368;2022-12-18T06:05:40;0.80;91.30
14798;DHT22;7490;63.708;20.368;2022-12-18T06:08:06;0.80;91.30
14798;DHT22;7490;63.708;20.368;2022-12-18T06:10:32;0.90;91.20
14798;DHT22;7490;63.708;20.368;2022-12-18T06:12:58;0.90;91.20
14798;DHT22;7490;63.708;20.368;2022-12-18T06:15:24;0.90;91.20
14798;DHT22;7490;63.708;20.368;2022-12-18T06:17:50;1.00;91.10
14798;DHT22;7490;63.708;20.368;2022-12-18T06:20:15;1.00;91.10
14798;DHT22;7490;63.708;20.368;2022-12-18T06:22:41;1.00;90.90
14798;DHT22;7490;63.708;20.368;2022-12-18T06:25:07;1.00;90.90
14798;DHT22;7490;63.708;20.368;2022-12-18T06:27:33;1.00;90.90
14798;DHT22;7490;63.708;20.368;2022-12-18T06:29:59;1.00;90.80
14798;DHT22;7490;63.708;20.368;2022-12-18T06:32:26;1.00;90.70
14798;DHT22;7490;63.708;20.368;2022-12-18T06:34:52;1.00;90.60
14798;DHT22;7490;63.708;20.368;2022-12-18T06:37:19;1.00;90.60
14798;DHT22;7490;63.708;20.368;2022-12-18T06:39:44;1.00;90.60
14798;DHT22;7490;63.708;20.368;2022-12-18T06:42:10;0.90;90.50
14798;DHT22;7490;63.708;20.368;2022-12-18T06:44:35;0.90;90.50
14798;DHT22;7490;63.708;20.368;2022-12-18T06:47:01;0.90;90.50
14798;DHT22;7490;63.708;20.368;2022-12-18T06:49:27;0.90;90.40
14798;DHT22;7490;63.708;20.368;2022-12-18T06:51:52;0.90;90.30
14798;DHT22;7490;63.708;20.368;2022-12-18T06:54:18;0.90;90.20
14798;DHT22;7490;63.708;20.368;2022-12-18T06:56:45;0.90;90.70
14798;DHT22;7490;63.708;20.368;2022-12-18T06:59:13;0.90;90.30
14798;DHT22;7490;63.708;20.368;2022-12-18T07:01:38;0.80;90.30
14798;DHT22;7490;63.708;20.368;2022-12-18T07:04:04;0.90;90.30
14798;DHT22;7490;63.708;20.368;2022-12-18T07:06:30;0.80;90.30
14798;DHT22;7490;63.708;20.368;2022-12-18T07:08:55;0.80;90.20
14798;DHT22;7490;63.708;20.368;2022-12-18T07:11:21;0.70;90.10
14798;DHT22;7490;63.708;20.368;2022-12-18T07:13:47;0.70;90.10
14798;DHT22;7490;63.708;20.368;2022-12-18T07:16:15;0.60;90.00
14798;DHT22;7490;63.708;20.368;2022-12-18T07:18:41;0.50;90.00
14798;DHT22;7490;63.708;20.368;2022-12-18T07:21:09;0.40;90.00
14798;DHT22;7490;63.708;20.368;2022-12-18T07:23:35;0.30;90.10
14798;DHT22;7490;63.708;20.368;2022-12-18T07:26:12;0.30;90.20
14798;DHT22;7490;63.708;20.368;2022-12-18T07:28:39;0.30;90.30
14798;DHT22;7490;63.708;20.368;2022-12-18T07:31:11;0.30;90.40
14798;DHT22;7490;63.708;20.368;2022-12-18T07:33:37;0.30;90.40
14798;DHT22;7490;63.708;20.368;2022-12-18T07:36:05;0.40;90.30
14798;DHT22;7490;63.708;20.368;2022-12-18T07:38:32;0.40;90.30
14798;DHT22;7490;63.708;20.368;2022-12-18T07:41:02;0.50;90.70
14798;DHT22;7490;63.708;20.368;2022-12-18T07:43:28;0.40;90.20
14798;DHT22;7490;63.708;20.368;2022-12-18T07:45:53;0.50;90.20
14798;DHT22;7490;63.708;20.368;2022-12-18T07:48:19;0.50;90.30
14798;DHT22;7490;63.708;20.368;2022-12-18T07:50:45;0.50;90.30
14798;DHT22;7490;63.708;20.368;2022-12-18T07:53:10;0.50;90.30
14798;DHT22;7490;63.708;20.368;2022-12-18T07:55:36;0.50;90.30
14798;DHT22;7490;63.708;20.368;2022-12-18T07:58:03;0.50;90.30
14798;DHT22;7490;63.708;20.368;2022-12-18T08:00:29;0.60;90.40
14798;DHT22;7490;63.708;20.368;2022-12-18T08:02:55;0.60;90.40
14798;DHT22;7490;63.708;20.368;2022-12-18T08:05:21;0.60;90.40
14798;DHT22;7490;63.708;20.368;2022-12-18T08:07:46;0.90;90.50
14798;DHT22;7490;63.708;20.368;2022-12-18T08:10:13;0.70;90.40
14798;DHT22;7490;63.708;20.368;2022-12-18T08:12:38;0.70;90.30
14798;DHT22;7490;63.708;20.368;2022-12-18T08:15:05;0.70;90.30
14798;DHT22;7490;63.708;20.368;2022-12-18T08:17:31;0.80;90.70
14798;DHT22;7490;63.708;20.368;2022-12-18T08:19:56;0.70;90.30
14798;DHT22;7490;63.708;20.368;2022-12-18T08:22:22;0.50;90.30
14798;DHT22;7490;63.708;20.368;2022-12-18T08:24:48;0.70;90.30
14798;DHT22;7490;63.708;20.368;2022-12-18T08:27:13;0.90;90.40
14798;DHT22;7490;63.708;20.368;2022-12-18T08:29:39;0.80;90.40
14798;DHT22;7490;63.708;20.368;2022-12-18T08:32:04;0.70;90.40
14798;DHT22;7490;63.708;20.368;2022-12-18T08:34:30;0.80;90.40
14798;DHT22;7490;63.708;20.368;2022-12-18T08:36:56;0.80;90.40
14798;DHT22;7490;63.708;20.368;2022-12-18T08:39:21;0.80;90.40
14798;DHT22;7490;63.708;20.368;2022-12-18T08:41:47;0.80;90.40
14798;DHT22;7490;63.708;20.368;2022-12-18T08:44:32;0.80;90.40
14798;DHT22;7490;63.708;20.368;2022-12-18T08:47:05;0.80;90.40
14798;DHT22;7490;63.708;20.368;2022-12-18T08:49:31;0.80;90.50
14798;DHT22;7490;63.708;20.368;2022-12-18T08:51:57;0.80;90.50
14798;DHT22;7490;63.708;20.368;2022-12-18T08:54:23;0.90;90.50
14798;DHT22;7490;63.708;20.368;2022-12-18T08:56:49;0.90;90.50
14798;DHT22;7490;63.708;20.368;2022-12-18T08:59:16;1.00;90.60
14798;DHT22;7490;63.708;20.368;2022-12-18T09:01:42;1.00;90.70
14798;DHT22;7490;63.708;20.368;2022-12-18T09:04:11;1.00;90.70
14798;DHT22;7490;63.708;20.368;2022-12-18T09:06:37;1.10;90.70
14798;DHT22;7490;63.708;20.368;2022-12-18T09:09:04;1.20;90.70
14798;DHT22;7490;63.708;20.368;2022-12-18T09:11:30;1.20;90.70
14798;DHT22;7490;63.708;20.368;2022-12-18T09:13:57;1.40;90.80
14798;DHT22;7490;63.708;20.368;2022-12-18T09:16:24;1.30;90.80
14798;DHT22;7490;63.708;20.368;2022-12-18T09:18:51;1.30;90.80
14798;DHT22;7490;63.708;20.368;2022-12-18T09:21:19;1.50;90.90
14798;DHT22;7490;63.708;20.368;2022-12-18T09:23:50;1.40;90.90
14798;DHT22;7490;63.708;20.368;2022-12-18T09:26:16;1.50;90.90
14798;DHT22;7490;63.708;20.368;2022-12-18T09:28:43;1.50;90.90
14798;DHT22;7490;63.708;20.368;2022-12-18T09:31:10;1.60;90.90
14798;DHT22;7490;63.708;20.368;2022-12-18T09:33:40;1.70;90.90
14798;DHT22;7490;63.708;20.368;2022-12-18T09:36:07;1.60;90.80
14798;DHT22;7490;63.708;20.368;2022-12-18T09:38:34;1.70;91.00
14798;DHT22;7490;63.708;20.368;2022-12-18T09:41:06;1.70;91.00
14798;DHT22;7490;63.708;20.368;2022-12-18T09:43:46;1.80;91.10
14798;DHT22;7490;63.708;20.368;2022-12-18T09:46:29;1.90;91.20
14798;DHT22;7490;63.708;20.368;2022-12-18T09:49:00;1.90;91.20
14798;DHT22;7490;63.708;20.368;2022-12-18T09:51:35;2.00;91.30
14798;DHT22;7490;63.708;20.368;2022-12-18T09:54:15;2.10;91.30
14798;DHT22;7490;63.708;20.368;2022-12-18T09:56:42;2.20;91.20
14798;DHT22;7490;63.708;20.368;2022-12-18T10:01:43;1.90;91.10
14798;DHT22;7490;63.708;20.368;2022-12-18T10:04:09;2.30;91.10
14798;DHT22;7490;63.708;20.368;2022-12-18T10:06:37;2.40;91.10
14798;DHT22;7490;63.708;20.368;2022-12-18T10:12:00;2.50;91.00
14798;DHT22;7490;63.708;20.368;2022-12-18T10:17:30;2.50;91.00
14798;DHT22;7490;63.708;20.368;2022-12-18T10:20:16;2.60;91.00
14798;DHT22;7490;63.708;20.368;2022-12-18T10:22:47;2.60;91.00
14798;DHT22;7490;63.708;20.368;2022-12-18T10:27:45;2.70;91.00
14798;DHT22;7490;63.708;20.368;2022-12-18T10:30:15;2.70;91.10
14798;DHT22;7490;63.708;20.368;2022-12-18T10:32:42;2.80;91.20
14798;DHT22;7490;63.708;20.368;2022-12-18T10:35:25;2.90;91.20
14798;DHT22;7490;63.708;20.368;2022-12-18T10:44:20;3.10;92.30
14798;DHT22;7490;63.708;20.368;2022-12-18T10:46:49;3.40;92.80
14798;DHT22;7490;63.708;20.368;2022-12-18T10:49:23;3.50;92.90
14798;DHT22;7490;63.708;20.368;2022-12-18T10:51:51;3.70;93.10
14798;DHT22;7490;63.708;20.368;2022-12-18T10:54:21;3.80;93.10
14798;DHT22;7490;63.708;20.368;2022-12-18T10:56:48;4.00;93.20
14798;DHT22;7490;63.708;20.368;2022-12-18T10:59:16;4.10;93.30
14798;DHT22;7490;63.708;20.368;2022-12-18T11:01:58;4.20;93.30
14798;DHT22;7490;63.708;20.368;2022-12-18T11:04:29;4.30;93.40
14798;DHT22;7490;63.708;20.368;2022-12-18T11:07:07;4.30;93.40
14798;DHT22;7490;63.708;20.368;2022-12-18T11:09:38;4.40;93.50
14798;DHT22;7490;63.708;20.368;2022-12-18T11:12:18;4.40;93.50
14798;DHT22;7490;63.708;20.368;2022-12-18T11:14:48;4.50;93.60
14798;DHT22;7490;63.708;20.368;2022-12-18T11:17:34;4.50;93.60
14798;DHT22;7490;63.708;20.368;2022-12-18T11:20:05;4.60;93.60
14798;DHT22;7490;63.708;20.368;2022-12-18T11:22:36;4.60;93.60
14798;DHT22;7490;63.708;20.368;2022-12-18T11:25:16;4.70;93.60
14798;DHT22;7490;63.708;20.368;2022-12-18T11:27:52;4.70;93.60
14798;DHT22;7490;63.708;20.368;2022-12-18T11:35:53;4.80;93.70
14798;DHT22;7490;63.708;20.368;2022-12-18T11:38:21;4.80;93.70
14798;DHT22;7490;63.708;20.368;2022-12-18T11:43:41;4.90;93.80
14798;DHT22;7490;63.708;20.368;2022-12-18T11:46:13;4.90;93.80
14798;DHT22;7490;63.708;20.368;2022-12-18T11:48:49;4.90;93.80
14798;DHT22;7490;63.708;20.368;2022-12-18T11:51:31;5.00;93.80
14798;DHT22;7490;63.708;20.368;2022-12-18T11:53:59;5.00;93.90
14798;DHT22;7490;63.708;20.368;2022-12-18T11:56:35;5.10;93.90
14798;DHT22;7490;63.708;20.368;2022-12-18T12:07:36;5.10;93.80
14798;DHT22;7490;63.708;20.368;2022-12-18T12:15:55;5.10;93.80
14798;DHT22;7490;63.708;20.368;2022-12-18T12:26:38;5.10;94.00
14798;DHT22;7490;63.708;20.368;2022-12-18T12:40:01;5.20;94.00
14798;DHT22;7490;63.708;20.368;2022-12-18T12:42:39;5.10;93.90
14798;DHT22;7490;63.708;20.368;2022-12-18T12:46:03;5.30;93.90
14798;DHT22;7490;63.708;20.368;2022-12-18T12:48:46;5.10;93.90
14798;DHT22;7490;63.708;20.368;2022-12-18T12:54:20;5.00;94.00
14798;DHT22;7490;63.708;20.368;2022-12-18T13:02:51;5.00;94.10
14798;DHT22;7490;63.708;20.368;2022-12-18T13:05:46;4.90;94.10
14798;DHT22;7490;63.708;20.368;2022-12-18T13:08:29;5.00;94.20
14798;DHT22;7490;63.708;20.368;2022-12-18T13:10:57;5.00;94.20
14798;DHT22;7490;63.708;20.368;2022-12-18T13:13:53;5.10;94.30
14798;DHT22;7490;63.708;20.368;2022-12-18T13:16:21;5.20;94.30
14798;DHT22;7490;63.708;20.368;2022-12-18T13:18:57;5.00;94.60
14798;DHT22;7490;63.708;20.368;2022-12-18T13:21:33;5.30;94.40
14798;DHT22;7490;63.708;20.368;2022-12-18T13:24:24;5.00;94.30
14798;DHT22;7490;63.708;20.368;2022-12-18T13:26:50;5.10;94.30
14798;DHT22;7490;63.708;20.368;2022-12-18T13:29:44;5.10;94.30
14798;DHT22;7490;63.708;20.368;2022-12-18T13:32:24;5.10;94.40
14798;DHT22;7490;63.708;20.368;2022-12-18T13:37:51;5.10;94.30
14798;DHT22;7490;63.708;20.368;2022-12-18T13:46:21;5.10;94.30
14798;DHT22;7490;63.708;20.368;2022-12-18T13:51:22;5.10;94.40
14798;DHT22;7490;63.708;20.368;2022-12-18T13:53:58;5.10;94.50
14798;DHT22;7490;63.708;20.368;2022-12-18T13:56:29;5.10;94.40
14798;DHT22;7490;63.708;20.368;2022-12-18T14:02:21;5.10;94.40
14798;DHT22;7490;63.708;20.368;2022-12-18T14:04:46;5.20;94.40
14798;DHT22;7490;63.708;20.368;2022-12-18T14:07:24;5.20;94.40
14798;DHT22;7490;63.708;20.368;2022-12-18T14:09:58;5.40;94.40
14798;DHT22;7490;63.708;20.368;2022-12-18T14:12:31;5.20;94.30
14798;DHT22;7490;63.708;20.368;2022-12-18T14:17:55;5.20;94.30
14798;DHT22;7490;63.708;20.368;2022-12-18T14:20:22;5.40;94.40
14798;DHT22;7490;63.708;20.368;2022-12-18T14:22:49;5.20;94.30
14798;DHT22;7490;63.708;20.368;2022-12-18T14:25:24;5.30;94.30
14798;DHT22;7490;63.708;20.368;2022-12-18T14:30:37;5.30;94.30
14798;DHT22;7490;63.708;20.368;2022-12-18T14:33:16;5.30;94.60
14798;DHT22;7490;63.708;20.368;2022-12-18T14:38:32;5.30;94.20
14798;DHT22;7490;63.708;20.368;2022-12-18T14:41:06;5.30;94.10
14798;DHT22;7490;63.708;20.368;2022-12-18T14:43:36;5.30;94.10
14798;DHT22;7490;63.708;20.368;2022-12-18T14:46:04;5.30;94.10
14798;DHT22;7490;63.708;20.368;2022-12-18T14:48:41;5.30;94.00
14798;DHT22;7490;63.708;20.368;2022-12-18T14:51:20;5.60;94.10
14798;DHT22;7490;63.708;20.368;2022-12-18T14:53:57;5.30;93.90
14798;DHT22;7490;63.708;20.368;2022-12-18T14:56:34;5.30;93.90
14798;DHT22;7490;63.708;20.368;2022-12-18T14:59:01;5.30;93.80
14798;DHT22;7490;63.708;20.368;2022-12-18T15:01:44;5.30;93.80
14798;DHT22;7490;63.708;20.368;2022-12-18T15:04:28;5.30;93.80
14798;DHT22;7490;63.708;20.368;2022-12-18T15:07:05;5.30;93.80
14798;DHT22;7490;63.708;20.368;2022-12-18T15:09:31;5.30;93.80
14798;DHT22;7490;63.708;20.368;2022-12-18T15:11:59;5.30;93.80
14798;DHT22;7490;63.708;20.368;2022-12-18T15:17:06;5.30;93.70
14798;DHT22;7490;63.708;20.368;2022-12-18T15:19:37;5.60;93.80
14798;DHT22;7490;63.708;20.368;2022-12-18T15:22:03;5.30;93.70
14798;DHT22;7490;63.708;20.368;2022-12-18T15:24:31;5.30;93.70
14798;DHT22;7490;63.708;20.368;2022-12-18T15:26:58;5.30;93.70
14798;DHT22;7490;63.708;20.368;2022-12-18T15:29:24;5.30;93.70
14798;DHT22;7490;63.708;20.368;2022-12-18T15:32:04;5.30;93.70
14798;DHT22;7490;63.708;20.368;2022-12-18T15:34:31;5.20;93.70
14798;DHT22;7490;63.708;20.368;2022-12-18T15:36:59;5.20;94.10
14798;DHT22;7490;63.708;20.368;2022-12-18T15:39:25;5.20;93.70
14798;DHT22;7490;63.708;20.368;2022-12-18T15:41:50;5.10;93.70
14798;DHT22;7490;63.708;20.368;2022-12-18T15:44:35;5.10;93.60
14798;DHT22;7490;63.708;20.368;2022-12-18T15:47:01;5.00;93.50
14798;DHT22;7490;63.708;20.368;2022-12-18T15:49:26;5.00;93.50
14798;DHT22;7490;63.708;20.368;2022-12-18T15:51:54;4.90;93.60
14798;DHT22;7490;63.708;20.368;2022-12-18T15:54:20;4.90;93.70
14798;DHT22;7490;63.708;20.368;2022-12-18T15:57:09;4.80;93.70
14798;DHT22;7490;63.708;20.368;2022-12-18T15:59:55;4.80;93.70
14798;DHT22;7490;63.708;20.368;2022-12-18T16:02:23;4.70;93.60
14798;DHT22;7490;63.708;20.368;2022-12-18T16:04:51;4.70;93.70
14798;DHT22;7490;63.708;20.368;2022-12-18T16:07:18;4.70;93.60
14798;DHT22;7490;63.708;20.368;2022-12-18T16:09:43;4.80;93.60
14798;DHT22;7490;63.708;20.368;2022-12-18T16:12:17;4.60;93.40
14798;DHT22;7490;63.708;20.368;2022-12-18T16:14:43;4.50;93.30
14798;DHT22;7490;63.708;20.368;2022-12-18T16:17:10;4.60;93.30
14798;DHT22;7490;63.708;20.368;2022-12-18T16:19:36;4.40;93.30
14798;DHT22;7490;63.708;20.368;2022-12-18T16:22:05;4.30;93.20
14798;DHT22;7490;63.708;20.368;2022-12-18T16:24:32;4.30;93.20
14798;DHT22;7490;63.708;20.368;2022-12-18T16:26:59;4.20;93.10
14798;DHT22;7490;63.708;20.368;2022-12-18T16:29:26;4.10;93.00
14798;DHT22;7490;63.708;20.368;2022-12-18T16:31:57;4.00;93.10
14798;DHT22;7490;63.708;20.368;2022-12-18T16:36:58;3.80;93.00
14798;DHT22;7490;63.708;20.368;2022-12-18T16:39:24;3.80;93.10
14798;DHT22;7490;63.708;20.368;2022-12-18T16:41:50;3.70;93.20
14798;DHT22;7490;63.708;20.368;2022-12-18T16:44:17;3.70;93.60
14798;DHT22;7490;63.708;20.368;2022-12-18T16:46:42;3.70;93.70
14798;DHT22;7490;63.708;20.368;2022-12-18T16:49:11;3.70;94.20
14798;DHT22;7490;63.708;20.368;2022-12-18T16:51:37;3.80;94.00
14798;DHT22;7490;63.708;20.368;2022-12-18T16:54:03;3.80;94.00
14798;DHT22;7490;63.708;20.368;2022-12-18T16:56:28;4.00;94.00
14798;DHT22;7490;63.708;20.368;2022-12-18T16:58:57;3.90;93.90
14798;DHT22;7490;63.708;20.368;2022-12-18T17:01:23;4.20;94.00
14798;DHT22;7490;63.708;20.368;2022-12-18T17:03:54;4.00;93.80
14798;DHT22;7490;63.708;20.368;2022-12-18T17:06:21;4.00;93.80
14798;DHT22;7490;63.708;20.368;2022-12-18T17:08:47;4.00;93.70
14798;DHT22;7490;63.708;20.368;2022-12-18T17:11:13;4.00;93.50
14798;DHT22;7490;63.708;20.368;2022-12-18T17:13:39;4.00;93.30
14798;DHT22;7490;63.708;20.368;2022-12-18T17:16:05;3.90;93.20
14798;DHT22;7490;63.708;20.368;2022-12-18T17:18:32;3.80;93.10
14798;DHT22;7490;63.708;20.368;2022-12-18T17:20:59;3.80;93.20
14798;DHT22;7490;63.708;20.368;2022-12-18T17:23:26;3.70;93.20
14798;DHT22;7490;63.708;20.368;2022-12-18T17:25:57;3.70;93.30
14798;DHT22;7490;63.708;20.368;2022-12-18T17:28:24;3.60;93.20
14798;DHT22;7490;63.708;20.368;2022-12-18T17:30:54;3.70;93.20
14798;DHT22;7490;63.708;20.368;2022-12-18T17:33:21;3.50;93.10
14798;DHT22;7490;63.708;20.368;2022-12-18T17:35:47;3.50;93.00
14798;DHT22;7490;63.708;20.368;2022-12-18T17:38:13;3.40;93.00
14798;DHT22;7490;63.708;20.368;2022-12-18T17:40:38;3.30;93.00
14798;DHT22;7490;63.708;20.368;2022-12-18T17:43:08;3.20;93.10
14798;DHT22;7490;63.708;20.368;2022-12-18T17:45:38;3.10;93.10
14798;DHT22;7490;63.708;20.368;2022-12-18T17:48:08;3.00;93.40
14798;DHT22;7490;63.708;20.368;2022-12-18T17:50:34;3.00;93.00